Terminal Aerodrome Forecast
Issued by NWS

Home | Current Version | Previous Version | Text Only | Print | Product List | Glossary On
Versions: 1 2 3 4 5 6 7 8 9 10 11 12 13 14 15 16 17 18 19 20 21 22 23 24 25
000
FTUS45 KVEF 250646 AAA
TAFLAS
TAF AMD
KLAS 250646Z 2507/2612 01010KT P6SM SCT250
     FM250900 18006KT P6SM BKN250
     FM251400 VRB04KT P6SM SCT250
     FM251800 05006KT P6SM BKN250
     FM260500 25007KT P6SM SCT200=

USA.gov is the U.S. government's official web portal to all federal, state and local government web resources and services.